Time,TemperatureF,DewpointF,PressureIn,WindDirection,WindDirectionDegrees,WindSpeedMPH,WindSpeedGustMPH,Humidity,HourlyPrecipIn,Conditions,Clouds,dailyrainin,SoftwareType,DateUTC
2013-03-30 00:13:00,34.4,24.0,30.15,East,89,3.0,3.0,65,0.00,,,0.00,weatherlink.com 1.10,2013-03-30 06:13:00,
2013-03-30 00:28:00,33.7,24.0,30.15,East,91,0.0,2.0,68,0.00,,,0.00,weatherlink.com 1.10,2013-03-30 06:28:00,
2013-03-30 00:43:00,32.2,24.0,30.16,NW,314,2.0,2.0,73,0.00,,,0.00,weatherlink.com 1.10,2013-03-30 06:43:00,
2013-03-30 00:59:00,36.0,22.0,30.15,ESE,113,2.0,5.0,58,0.00,,,0.00,weatherlink.com 1.10,2013-03-30 06:59:00,
2013-03-30 01:14:00,35.8,23.0,30.15,ESE,109,0.0,4.0,59,0.00,,,0.00,weatherlink.com 1.10,2013-03-30 07:14:00,
2013-03-30 01:29:00,37.6,21.0,30.14,NNW,339,2.0,9.0,52,0.00,,,0.00,weatherlink.com 1.10,2013-03-30 07:29:00,
2013-03-30 01:44:00,38.3,20.0,30.14,SE,125,0.0,9.0,49,0.00,,,0.00,weatherlink.com 1.10,2013-03-30 07:44:00,
2013-03-30 01:59:00,39.4,22.0,30.13,NNE,18,3.0,14.0,49,0.00,,,0.00,weatherlink.com 1.10,2013-03-30 07:59:00,
2013-03-30 02:14:00,39.2,21.0,30.12,WSW,243,2.0,11.0,49,0.00,,,0.00,weatherlink.com 1.10,2013-03-30 08:14:00,
2013-03-30 02:29:00,39.2,21.0,30.11,South,170,0.0,11.0,48,0.00,,,0.00,weatherlink.com 1.10,2013-03-30 08:29:00,
2013-03-30 02:44:00,39.5,20.0,30.11,SW,230,9.0,14.0,45,0.00,,,0.00,weatherlink.com 1.10,2013-03-30 08:44:00,
2013-03-30 02:59:00,39.3,20.0,30.11,West,281,0.0,8.0,47,0.00,,,0.00,weatherlink.com 1.10,2013-03-30 08:59:00,
2013-03-30 03:14:00,38.5,21.0,30.10,NW,311,2.0,9.0,49,0.00,,,0.00,weatherlink.com 1.10,2013-03-30 09:14:00,
2013-03-30 03:29:00,39.0,22.0,30.11,NW,321,4.0,9.0,50,0.00,,,0.00,weatherlink.com 1.10,2013-03-30 09:29:00,
2013-03-30 03:44:00,38.9,21.0,30.10,East,87,4.0,9.0,49,0.00,,,0.00,weatherlink.com 1.10,2013-03-30 09:44:00,
2013-03-30 03:59:00,39.1,21.0,30.09,SSE,151,2.0,19.0,49,0.00,,,0.00,weatherlink.com 1.10,2013-03-30 09:59:00,
2013-03-30 04:14:00,39.2,21.0,30.08,SSW,205,1.0,12.0,48,0.00,,,0.00,weatherlink.com 1.10,2013-03-30 10:14:00,
2013-03-30 04:29:00,38.1,22.0,30.08,WSW,251,4.0,6.0,52,0.00,,,0.00,weatherlink.com 1.10,2013-03-30 10:29:00,
2013-03-30 04:44:00,38.3,20.0,30.07,NW,319,1.0,11.0,48,0.00,,,0.00,weatherlink.com 1.10,2013-03-30 10:44:00,
2013-03-30 04:59:00,38.4,20.0,30.07,NNW,334,3.0,12.0,47,0.00,,,0.00,weatherlink.com 1.10,2013-03-30 10:59:00,
2013-03-30 05:14:00,38.2,20.0,30.07,SE,144,1.0,9.0,48,0.00,,,0.00,weatherlink.com 1.10,2013-03-30 11:14:00,
2013-03-30 05:29:00,38.4,19.0,30.07,SSE,164,0.0,10.0,46,0.00,,,0.00,weatherlink.com 1.10,2013-03-30 11:29:00,
2013-03-30 05:44:00,38.5,18.0,30.07,SSW,206,1.0,13.0,44,0.00,,,0.00,weatherlink.com 1.10,2013-03-30 11:44:00,
2013-03-30 05:59:00,38.7,18.0,30.08,WSW,256,1.0,13.0,44,0.00,,,0.00,weatherlink.com 1.10,2013-03-30 11:59:00,
2013-03-30 06:14:00,38.2,19.0,30.08,West,274,4.0,10.0,47,0.00,,,0.00,weatherlink.com 1.10,2013-03-30 12:14:00,
2013-03-30 06:29:00,38.6,19.0,30.09,South,175,2.0,13.0,45,0.00,,,0.00,weatherlink.com 1.10,2013-03-30 12:29:00,
2013-03-30 06:44:00,38.6,19.0,30.08,North,359,3.0,6.0,45,0.00,,,0.00,weatherlink.com 1.10,2013-03-30 12:44:00,
2013-03-30 06:59:00,38.7,18.0,30.08,NNW,348,3.0,11.0,43,0.00,,,0.00,weatherlink.com 1.10,2013-03-30 12:59:00,
2013-03-30 07:14:00,38.2,17.0,30.08,SW,223,1.0,11.0,42,0.00,,,0.00,weatherlink.com 1.10,2013-03-30 13:14:00,
2013-03-30 07:29:00,36.8,19.0,30.10,SW,229,0.0,4.0,49,0.00,,,0.00,weatherlink.com 1.10,2013-03-30 13:29:00,
2013-03-30 07:44:00,37.7,17.0,30.10,North,355,4.0,6.0,44,0.00,,,0.00,weatherlink.com 1.10,2013-03-30 13:44:00,
2013-03-30 07:59:00,38.7,17.0,30.10,South,184,1.0,7.0,42,0.00,,,0.00,weatherlink.com 1.10,2013-03-30 13:59:00,
2013-03-30 08:14:00,40.2,17.0,30.10,WNW,285,6.0,7.0,39,0.00,,,0.00,weatherlink.com 1.10,2013-03-30 14:14:00,
2013-03-30 08:29:00,41.1,16.0,30.10,West,261,3.0,11.0,37,0.00,,,0.00,weatherlink.com 1.10,2013-03-30 14:29:00,
2013-03-30 08:44:00,41.3,17.0,30.10,West,278,4.0,9.0,38,0.00,,,0.00,weatherlink.com 1.10,2013-03-30 14:44:00,
2013-03-30 08:59:00,40.9,17.0,30.10,WSW,258,0.0,5.0,38,0.00,,,0.00,weatherlink.com 1.10,2013-03-30 14:59:00,
2013-03-30 09:14:00,40.7,17.0,30.09,WNW,293,2.0,8.0,38,0.00,,,0.00,weatherlink.com 1.10,2013-03-30 15:14:00,
2013-03-30 09:29:00,40.5,17.0,30.10,SSW,197,1.0,7.0,38,0.00,,,0.00,weatherlink.com 1.10,2013-03-30 15:29:00,
2013-03-30 09:44:00,40.3,17.0,30.10,West,259,1.0,8.0,39,0.00,,,0.00,weatherlink.com 1.10,2013-03-30 15:44:00,
2013-03-30 09:59:00,40.6,18.0,30.10,WSW,247,3.0,7.0,40,0.00,,,0.00,weatherlink.com 1.10,2013-03-30 15:59:00,
2013-03-30 10:14:00,40.7,20.0,30.09,SW,231,0.0,9.0,43,0.00,,,0.00,weatherlink.com 1.10,2013-03-30 16:14:00,
2013-03-30 10:29:00,41.2,19.0,30.09,SW,214,0.0,6.0,41,0.00,,,0.00,weatherlink.com 1.10,2013-03-30 16:29:00,
2013-03-30 10:44:00,41.8,19.0,30.08,West,276,0.0,7.0,40,0.00,,,0.00,weatherlink.com 1.10,2013-03-30 16:44:00,
2013-03-30 10:59:00,42.7,19.0,30.08,ENE,76,3.0,7.0,38,0.00,,,0.00,weatherlink.com 1.10,2013-03-30 16:59:00,
2013-03-30 11:14:00,43.1,21.0,30.09,South,175,1.0,6.0,41,0.00,,,0.00,weatherlink.com 1.10,2013-03-30 17:14:00,
2013-03-30 11:29:00,43.9,19.0,30.07,ENE,76,3.0,6.0,37,0.00,,,0.00,weatherlink.com 1.10,2013-03-30 17:29:00,
2013-03-30 11:44:00,46.1,22.0,30.06,WNW,295,1.0,7.0,38,0.00,,,0.00,weatherlink.com 1.10,2013-03-30 17:44:00,
2013-03-30 11:59:00,45.1,19.0,30.06,NNW,331,0.0,6.0,35,0.00,,,0.00,weatherlink.com 1.10,2013-03-30 17:59:00,
2013-03-30 12:15:00,46.2,19.0,30.05,SSE,160,2.0,5.0,34,0.00,,,0.00,weatherlink.com 1.10,2013-03-30 18:15:00,
2013-03-30 12:30:00,47.5,21.0,30.03,SW,223,4.0,9.0,35,0.00,,,0.00,weatherlink.com 1.10,2013-03-30 18:30:00,
2013-03-30 12:45:00,46.2,20.0,30.05,SE,126,1.0,4.0,35,0.00,,,0.00,weatherlink.com 1.10,2013-03-30 18:45:00,
2013-03-30 13:00:00,47.6,24.0,30.05,WSW,237,6.0,10.0,40,0.00,,,0.00,weatherlink.com 1.10,2013-03-30 19:00:00,
2013-03-30 13:15:00,46.4,25.0,30.04,WSW,255,11.0,13.0,44,0.00,,,0.00,weatherlink.com 1.10,2013-03-30 19:15:00,
2013-03-30 13:30:00,44.9,26.0,30.05,SW,215,4.0,12.0,47,0.00,,,0.00,weatherlink.com 1.10,2013-03-30 19:30:00,
2013-03-30 13:45:00,46.8,22.0,30.05,WSW,252,1.0,11.0,37,0.00,,,0.00,weatherlink.com 1.10,2013-03-30 19:45:00,
2013-03-30 14:00:00,48.2,23.0,30.05,SW,215,2.0,7.0,38,0.00,,,0.00,weatherlink.com 1.10,2013-03-30 20:00:00,
2013-03-30 14:15:00,49.8,21.0,30.05,West,259,3.0,6.0,32,0.00,,,0.00,weatherlink.com 1.10,2013-03-30 20:15:00,
2013-03-30 14:30:00,45.7,24.0,30.07,SW,227,2.0,8.0,42,0.00,,,0.00,weatherlink.com 1.10,2013-03-30 20:30:00,
2013-03-30 14:45:00,43.0,27.0,30.06,ESE,105,3.0,5.0,54,0.00,,,0.00,weatherlink.com 1.10,2013-03-30 20:45:00,
2013-03-30 15:00:00,42.3,25.0,30.06,West,272,7.0,11.0,51,0.00,,,0.00,weatherlink.com 1.10,2013-03-30 21:00:00,
2013-03-30 15:15:00,42.3,25.0,30.04,South,172,2.0,12.0,51,0.00,,,0.00,weatherlink.com 1.10,2013-03-30 21:15:00,
2013-03-30 15:30:00,43.0,22.0,30.02,SSE,152,2.0,13.0,44,0.00,,,0.00,weatherlink.com 1.10,2013-03-30 21:30:00,
2013-03-30 15:45:00,40.4,27.0,30.06,NE,43,6.0,13.0,59,0.00,,,0.00,weatherlink.com 1.10,2013-03-30 21:45:00,
2013-03-30 16:00:00,36.7,31.0,30.05,ENE,72,0.0,5.0,79,0.00,,,0.00,weatherlink.com 1.10,2013-03-30 22:00:00,
2013-03-30 16:15:00,38.4,28.0,30.03,SW,217,5.0,6.0,66,0.00,,,0.00,weatherlink.com 1.10,2013-03-30 22:15:00,
2013-03-30 16:30:00,40.5,24.0,30.02,SSW,198,2.0,9.0,53,0.00,,,0.00,weatherlink.com 1.10,2013-03-30 22:30:00,
2013-03-30 16:45:00,41.0,23.0,30.02,SSE,163,4.0,10.0,49,0.00,,,0.00,weatherlink.com 1.10,2013-03-30 22:45:00,
2013-03-30 17:00:00,40.6,25.0,30.04,West,271,6.0,10.0,55,0.00,,,0.00,weatherlink.com 1.10,2013-03-30 23:00:00,
2013-03-30 17:15:00,38.7,28.0,30.03,SSE,165,2.0,4.0,65,0.00,,,0.00,weatherlink.com 1.10,2013-03-30 23:15:00,
2013-03-30 17:30:00,39.8,22.0,30.03,SSW,212,1.0,13.0,50,0.00,,,0.00,weatherlink.com 1.10,2013-03-30 23:30:00,
2013-03-30 17:45:00,40.3,22.0,30.03,SW,215,5.0,11.0,48,0.00,,,0.00,weatherlink.com 1.10,2013-03-30 23:45:00,
2013-03-30 18:00:00,40.4,25.0,30.04,North,356,2.0,11.0,54,0.00,,,0.00,weatherlink.com 1.10,2013-03-31 00:00:00,
2013-03-30 18:15:00,40.1,24.0,30.05,SSE,162,5.0,9.0,52,0.00,,,0.00,weatherlink.com 1.10,2013-03-31 00:15:00,
2013-03-30 18:30:00,39.7,25.0,30.06,West,278,1.0,4.0,56,0.00,,,0.00,weatherlink.com 1.10,2013-03-31 00:30:00,
2013-03-30 18:45:00,38.5,28.0,30.09,SW,224,1.0,3.0,65,0.00,,,0.00,weatherlink.com 1.10,2013-03-31 00:45:00,
2013-03-30 19:00:00,36.7,30.0,30.08,West,276,0.0,1.0,76,0.00,,,0.00,weatherlink.com 1.10,2013-03-31 01:00:00,
2013-03-30 19:15:00,35.2,30.0,30.07,SSW,212,0.0,1.0,80,0.00,,,0.00,weatherlink.com 1.10,2013-03-31 01:15:00,
2013-03-30 19:30:00,34.3,29.0,30.08,NNW,333,0.0,1.0,81,0.00,,,0.00,weatherlink.com 1.10,2013-03-31 01:30:00,
2013-03-30 19:45:00,36.3,26.0,30.09,WSW,253,3.0,8.0,66,0.00,,,0.00,weatherlink.com 1.10,2013-03-31 01:45:00,
2013-03-30 20:00:00,35.9,28.0,30.11,WSW,250,0.0,4.0,72,0.00,,,0.00,weatherlink.com 1.10,2013-03-31 02:00:00,
2013-03-30 20:15:00,34.2,29.0,30.11,SW,226,1.0,8.0,82,0.00,,,0.00,weatherlink.com 1.10,2013-03-31 02:15:00,
2013-03-30 20:30:00,32.6,28.0,30.11,SW,217,0.0,1.0,84,0.00,,,0.00,weatherlink.com 1.10,2013-03-31 02:30:00,
2013-03-30 20:45:00,31.0,27.0,30.10,SW,221,0.0,1.0,86,0.00,,,0.00,weatherlink.com 1.10,2013-03-31 02:45:00,
2013-03-30 21:00:00,29.9,27.0,30.11,WSW,244,0.0,1.0,88,0.00,,,0.00,weatherlink.com 1.10,2013-03-31 03:00:00,
2013-03-30 21:15:00,29.3,26.0,30.12,South,177,0.0,2.0,88,0.00,,,0.00,weatherlink.com 1.10,2013-03-31 03:15:00,
2013-03-30 21:30:00,28.9,26.0,30.12,SW,231,0.0,1.0,87,0.00,,,0.00,weatherlink.com 1.10,2013-03-31 03:30:00,
2013-03-30 21:45:00,28.3,25.0,30.13,WSW,237,0.0,1.0,88,0.00,,,0.00,weatherlink.com 1.10,2013-03-31 03:45:00,
2013-03-30 22:00:00,27.6,25.0,30.13,West,270,0.0,2.0,89,0.00,,,0.00,weatherlink.com 1.10,2013-03-31 04:00:00,
2013-03-30 22:15:00,27.8,25.0,30.15,WSW,244,0.0,1.0,88,0.00,,,0.00,weatherlink.com 1.10,2013-03-31 04:15:00,
2013-03-30 22:30:00,27.5,25.0,30.15,WSW,248,0.0,1.0,90,0.00,,,0.00,weatherlink.com 1.10,2013-03-31 04:30:00,
2013-03-30 22:45:00,27.4,26.0,30.16,WSW,248,0.0,1.0,93,0.00,,,0.00,weatherlink.com 1.10,2013-03-31 04:45:00,
2013-03-30 23:00:00,28.5,27.0,30.16,WSW,248,0.0,1.0,94,0.00,,,0.00,weatherlink.com 1.10,2013-03-31 05:00:00,
2013-03-30 23:15:00,29.5,28.0,30.15,West,262,0.0,1.0,92,0.00,,,0.00,weatherlink.com 1.10,2013-03-31 05:15:00,
2013-03-30 23:30:00,29.9,28.0,30.15,West,271,0.0,1.0,92,0.00,,,0.00,weatherlink.com 1.10,2013-03-31 05:30:00,
2013-03-30 23:45:00,30.1,28.0,30.14,West,271,0.0,1.0,93,0.00,,,0.00,weatherlink.com 1.10,2013-03-31 05:45:00,